sensor_id;sensor_type;location;lat;lon;timestamp;pressure;altitude;pressure_sealevel;temperature;humidity
42125;BME280;27787;44.594;11.046;2023-08-17T00:00:56;101042.44;;;26.96;71.56
42125;BME280;27787;44.594;11.046;2023-08-17T00:03:40;101039.19;;;26.89;71.81
42125;BME280;27787;44.594;11.046;2023-08-17T00:06:24;101036.88;;;26.82;71.73
42125;BME280;27787;44.594;11.046;2023-08-17T00:09:09;101028.06;;;26.78;71.98
42125;BME280;27787;44.594;11.046;2023-08-17T00:11:54;101023.88;;;26.72;72.08
42125;BME280;27787;44.594;11.046;2023-08-17T00:14:38;101011.44;;;26.68;72.58
42125;BME280;27787;44.594;11.046;2023-08-17T00:17:22;101005.50;;;26.62;73.15
42125;BME280;27787;44.594;11.046;2023-08-17T00:20:07;101007.34;;;26.61;73.48
42125;BME280;27787;44.594;11.046;2023-08-17T00:22:53;101003.75;;;26.61;72.97
42125;BME280;27787;44.594;11.046;2023-08-17T00:25:37;101011.97;;;26.59;72.84
42125;BME280;27787;44.594;11.046;2023-08-17T00:28:22;101013.63;;;26.62;72.65
42125;BME280;27787;44.594;11.046;2023-08-17T00:31:06;101009.88;;;26.64;72.20
42125;BME280;27787;44.594;11.046;2023-08-17T00:33:49;101008.03;;;26.65;72.07
42125;BME280;27787;44.594;11.046;2023-08-17T00:36:33;101002.53;;;26.66;72.04
42125;BME280;27787;44.594;11.046;2023-08-17T00:39:17;101009.88;;;26.64;72.15
42125;BME280;27787;44.594;11.046;2023-08-17T00:42:02;101000.28;;;26.59;72.43
42125;BME280;27787;44.594;11.046;2023-08-17T00:44:47;101005.03;;;26.54;72.55
42125;BME280;27787;44.594;11.046;2023-08-17T00:47:31;101019.53;;;26.53;72.75
42125;BME280;27787;44.594;11.046;2023-08-17T00:50:15;101010.91;;;26.46;72.63
42125;BME280;27787;44.594;11.046;2023-08-17T00:53:00;101026.59;;;26.39;73.16
42125;BME280;27787;44.594;11.046;2023-08-17T00:55:45;101023.22;;;26.34;73.42
42125;BME280;27787;44.594;11.046;2023-08-17T00:58:30;101022.34;;;26.34;73.25
42125;BME280;27787;44.594;11.046;2023-08-17T01:01:15;101024.94;;;26.37;72.94
42125;BME280;27787;44.594;11.046;2023-08-17T01:04:00;101021.19;;;26.39;72.56
42125;BME280;27787;44.594;11.046;2023-08-17T01:06:44;101032.00;;;26.39;72.83
42125;BME280;27787;44.594;11.046;2023-08-17T01:09:28;101034.78;;;26.38;72.89
42125;BME280;27787;44.594;11.046;2023-08-17T01:12:31;101031.75;;;26.27;74.07
42125;BME280;27787;44.594;11.046;2023-08-17T01:15:21;101031.94;;;26.24;74.18
42125;BME280;27787;44.594;11.046;2023-08-17T01:20:56;101021.97;;;26.24;73.76
42125;BME280;27787;44.594;11.046;2023-08-17T01:23:40;101018.22;;;26.27;73.32
42125;BME280;27787;44.594;11.046;2023-08-17T01:26:25;101019.88;;;26.29;72.94
42125;BME280;27787;44.594;11.046;2023-08-17T01:29:11;101016.06;;;26.33;72.12
42125;BME280;27787;44.594;11.046;2023-08-17T01:35:02;101015.34;;;26.30;71.36
42125;BME280;27787;44.594;11.046;2023-08-17T01:37:50;101019.00;;;26.29;71.42
42125;BME280;27787;44.594;11.046;2023-08-17T01:40:35;101018.22;;;26.27;71.53
42125;BME280;27787;44.594;11.046;2023-08-17T01:43:20;101033.84;;;26.22;72.42
42125;BME280;27787;44.594;11.046;2023-08-17T01:46:05;101039.56;;;26.15;73.03
42125;BME280;27787;44.594;11.046;2023-08-17T01:48:48;101026.75;;;26.02;73.78
42125;BME280;27787;44.594;11.046;2023-08-17T01:51:32;101030.03;;;25.91;74.45
42125;BME280;27787;44.594;11.046;2023-08-17T01:54:17;101030.63;;;25.80;74.88
42125;BME280;27787;44.594;11.046;2023-08-17T01:57:01;101031.69;;;25.76;75.28
42125;BME280;27787;44.594;11.046;2023-08-17T01:59:46;101035.63;;;25.71;75.66
42125;BME280;27787;44.594;11.046;2023-08-17T02:02:30;101049.56;;;25.62;76.01
42125;BME280;27787;44.594;11.046;2023-08-17T02:05:14;101044.13;;;25.44;77.20
42125;BME280;27787;44.594;11.046;2023-08-17T02:07:58;101047.44;;;25.32;77.78
42125;BME280;27787;44.594;11.046;2023-08-17T02:10:46;101056.22;;;25.18;78.74
42125;BME280;27787;44.594;11.046;2023-08-17T02:13:30;101052.59;;;25.01;79.73
42125;BME280;27787;44.594;11.046;2023-08-17T02:16:20;101054.91;;;24.89;80.33
42125;BME280;27787;44.594;11.046;2023-08-17T02:19:04;101058.66;;;24.85;80.93
42125;BME280;27787;44.594;11.046;2023-08-17T02:21:48;101061.91;;;24.93;80.81
42125;BME280;27787;44.594;11.046;2023-08-17T02:24:32;101045.78;;;25.11;80.28
42125;BME280;27787;44.594;11.046;2023-08-17T02:27:17;101044.38;;;25.21;79.54
42125;BME280;27787;44.594;11.046;2023-08-17T02:30:01;101047.69;;;25.27;79.44
42125;BME280;27787;44.594;11.046;2023-08-17T02:32:46;101045.63;;;25.33;78.94
42125;BME280;27787;44.594;11.046;2023-08-17T02:35:30;101042.59;;;25.39;78.56
42125;BME280;27787;44.594;11.046;2023-08-17T02:38:14;101054.16;;;25.42;78.56
42125;BME280;27787;44.594;11.046;2023-08-17T02:40:58;101051.22;;;25.47;78.15
42125;BME280;27787;44.594;11.046;2023-08-17T02:43:42;101059.56;;;25.42;79.31
42125;BME280;27787;44.594;11.046;2023-08-17T02:46:26;101059.13;;;25.33;80.97
42125;BME280;27787;44.594;11.046;2023-08-17T02:49:09;101046.66;;;25.30;80.70
42125;BME280;27787;44.594;11.046;2023-08-17T02:51:53;101049.34;;;25.30;79.41
42125;BME280;27787;44.594;11.046;2023-08-17T02:54:37;101053.81;;;25.31;79.89
42125;BME280;27787;44.594;11.046;2023-08-17T02:57:21;101053.00;;;25.29;80.44
42125;BME280;27787;44.594;11.046;2023-08-17T03:00:06;101041.41;;;25.27;81.15
42125;BME280;27787;44.594;11.046;2023-08-17T03:02:51;101049.44;;;25.28;80.51
42125;BME280;27787;44.594;11.046;2023-08-17T03:05:35;101042.47;;;25.23;80.27
42125;BME280;27787;44.594;11.046;2023-08-17T03:08:19;101050.66;;;25.21;79.97
42125;BME280;27787;44.594;11.046;2023-08-17T03:11:03;101048.91;;;25.20;79.42
42125;BME280;27787;44.594;11.046;2023-08-17T03:13:47;101052.13;;;25.10;79.92
42125;BME280;27787;44.594;11.046;2023-08-17T03:16:33;101052.28;;;25.07;80.31
42125;BME280;27787;44.594;11.046;2023-08-17T03:19:17;101048.63;;;25.08;80.26
42125;BME280;27787;44.594;11.046;2023-08-17T03:22:02;101046.81;;;25.08;79.88
42125;BME280;27787;44.594;11.046;2023-08-17T03:24:46;101040.44;;;25.09;79.91
42125;BME280;27787;44.594;11.046;2023-08-17T03:27:30;101036.78;;;25.10;79.91
42125;BME280;27787;44.594;11.046;2023-08-17T03:30:14;101043.94;;;25.11;79.47
42125;BME280;27787;44.594;11.046;2023-08-17T03:32:59;101039.41;;;25.12;79.31
42125;BME280;27787;44.594;11.046;2023-08-17T03:35:43;101038.69;;;25.08;79.42
42125;BME280;27787;44.594;11.046;2023-08-17T03:38:27;101046.09;;;25.05;79.51
42125;BME280;27787;44.594;11.046;2023-08-17T03:41:13;101046.25;;;25.02;79.49
42125;BME280;27787;44.594;11.046;2023-08-17T03:43:57;101043.56;;;25.00;79.72
42125;BME280;27787;44.594;11.046;2023-08-17T03:46:42;101052.59;;;24.99;79.76
42125;BME280;27787;44.594;11.046;2023-08-17T03:49:26;101056.66;;;24.90;79.93
42125;BME280;27787;44.594;11.046;2023-08-17T03:52:11;101060.56;;;24.83;80.34
42125;BME280;27787;44.594;11.046;2023-08-17T03:54:55;101060.72;;;24.80;80.46
42125;BME280;27787;44.594;11.046;2023-08-17T03:57:39;101057.06;;;24.81;80.39
42125;BME280;27787;44.594;11.046;2023-08-17T04:00:23;101063.34;;;24.82;80.45
42125;BME280;27787;44.594;11.046;2023-08-17T04:03:13;101067.94;;;24.80;80.31
42125;BME280;27787;44.594;11.046;2023-08-17T04:06:04;101059.91;;;24.78;80.20
42125;BME280;27787;44.594;11.046;2023-08-17T04:08:48;101066.28;;;24.77;80.35
42125;BME280;27787;44.594;11.046;2023-08-17T04:11:35;101058.16;;;24.77;80.01
42125;BME280;27787;44.594;11.046;2023-08-17T04:14:20;101057.38;;;24.75;80.51
42125;BME280;27787;44.594;11.046;2023-08-17T04:17:05;101053.72;;;24.76;80.22
42125;BME280;27787;44.594;11.046;2023-08-17T04:19:50;101046.56;;;24.75;80.22
42125;BME280;27787;44.594;11.046;2023-08-17T04:22:35;101044.16;;;24.69;80.17
42125;BME280;27787;44.594;11.046;2023-08-17T04:25:19;101047.00;;;24.66;80.58
42125;BME280;27787;44.594;11.046;2023-08-17T04:28:03;101042.47;;;24.66;80.41
42125;BME280;27787;44.594;11.046;2023-08-17T04:30:50;101043.34;;;24.67;80.55
42125;BME280;27787;44.594;11.046;2023-08-17T04:33:34;101045.16;;;24.66;80.52
42125;BME280;27787;44.594;11.046;2023-08-17T04:36:18;101056.84;;;24.67;80.45
42125;BME280;27787;44.594;11.046;2023-08-17T04:39:03;101055.97;;;24.66;80.30
42125;BME280;27787;44.594;11.046;2023-08-17T04:41:49;101058.50;;;24.69;80.28
42125;BME280;27787;44.594;11.046;2023-08-17T04:44:38;101054.78;;;24.72;80.16
42125;BME280;27787;44.594;11.046;2023-08-17T04:47:22;101053.84;;;24.73;79.93
42125;BME280;27787;44.594;11.046;2023-08-17T04:50:07;101056.63;;;24.71;80.18
42125;BME280;27787;44.594;11.046;2023-08-17T04:52:52;101059.25;;;24.73;80.26
42125;BME280;27787;44.594;11.046;2023-08-17T04:55:36;101063.34;;;24.82;80.09
42125;BME280;27787;44.594;11.046;2023-08-17T04:58:21;101056.50;;;24.93;79.50
42125;BME280;27787;44.594;11.046;2023-08-17T05:01:06;101056.91;;;25.05;78.93
42125;BME280;27787;44.594;11.046;2023-08-17T05:03:51;101054.34;;;25.02;78.63
42125;BME280;27787;44.594;11.046;2023-08-17T05:06:35;101053.72;;;24.95;79.67
42125;BME280;27787;44.594;11.046;2023-08-17T05:09:22;101047.19;;;25.01;79.51
42125;BME280;27787;44.594;11.046;2023-08-17T05:12:07;101049.59;;;25.07;79.02
42125;BME280;27787;44.594;11.046;2023-08-17T05:14:51;101052.88;;;25.13;78.98
42125;BME280;27787;44.594;11.046;2023-08-17T05:17:35;101051.69;;;25.19;78.89
42125;BME280;27787;44.594;11.046;2023-08-17T05:20:20;101053.28;;;25.23;78.45
42125;BME280;27787;44.594;11.046;2023-08-17T05:23:04;101051.38;;;25.25;78.15
42125;BME280;27787;44.594;11.046;2023-08-17T05:25:48;101050.66;;;25.21;78.42
42125;BME280;27787;44.594;11.046;2023-08-17T05:28:33;101060.44;;;25.24;78.82
42125;BME280;27787;44.594;11.046;2023-08-17T05:31:19;101053.13;;;25.26;78.38
42125;BME280;27787;44.594;11.046;2023-08-17T05:34:05;101051.38;;;25.25;78.78
42125;BME280;27787;44.594;11.046;2023-08-17T05:36:51;101052.56;;;25.19;79.38
42125;BME280;27787;44.594;11.046;2023-08-17T05:39:35;101060.84;;;25.16;79.75
42125;BME280;27787;44.594;11.046;2023-08-17T05:42:19;101059.00;;;25.17;80.54
42125;BME280;27787;44.594;11.046;2023-08-17T05:45:04;101063.38;;;25.19;80.54
42125;BME280;27787;44.594;11.046;2023-08-17T05:47:49;101066.81;;;25.23;80.72
42125;BME280;27787;44.594;11.046;2023-08-17T05:50:33;101062.94;;;25.28;81.03
42125;BME280;27787;44.594;11.046;2023-08-17T05:53:17;101058.25;;;25.32;80.83
42125;BME280;27787;44.594;11.046;2023-08-17T05:56:01;101054.59;;;25.33;80.53
42125;BME280;27787;44.594;11.046;2023-08-17T05:58:46;101053.41;;;25.39;80.53
42125;BME280;27787;44.594;11.046;2023-08-17T06:01:30;101051.38;;;25.44;80.56
42125;BME280;27787;44.594;11.046;2023-08-17T06:04:15;101050.91;;;25.53;80.96
42125;BME280;27787;44.594;11.046;2023-08-17T06:06:59;101052.44;;;25.58;80.58
42125;BME280;27787;44.594;11.046;2023-08-17T06:09:43;101049.38;;;25.65;79.98
42125;BME280;27787;44.594;11.046;2023-08-17T06:12:27;101055.50;;;25.70;80.03
42125;BME280;27787;44.594;11.046;2023-08-17T06:15:11;101060.75;;;25.73;80.54
42125;BME280;27787;44.594;11.046;2023-08-17T06:17:58;101061.69;;;25.72;80.16
42125;BME280;27787;44.594;11.046;2023-08-17T06:20:45;101059.22;;;25.67;80.41
42125;BME280;27787;44.594;11.046;2023-08-17T06:23:31;101069.97;;;25.69;80.71
42125;BME280;27787;44.594;11.046;2023-08-17T06:26:17;101058.34;;;25.67;80.51
42125;BME280;27787;44.594;11.046;2023-08-17T06:29:02;101066.50;;;25.65;79.62
42125;BME280;27787;44.594;11.046;2023-08-17T06:31:46;101060.16;;;25.66;79.41
42125;BME280;27787;44.594;11.046;2023-08-17T06:34:30;101070.03;;;25.67;78.14
42125;BME280;27787;44.594;11.046;2023-08-17T06:37:15;101075.22;;;25.72;78.20
42125;BME280;27787;44.594;11.046;2023-08-17T06:39:59;101072.34;;;25.75;77.59
42125;BME280;27787;44.594;11.046;2023-08-17T06:42:43;101065.03;;;25.77;76.75
42125;BME280;27787;44.594;11.046;2023-08-17T06:45:27;101069.28;;;25.82;76.36
42125;BME280;27787;44.594;11.046;2023-08-17T06:48:11;101065.44;;;25.86;76.38
42125;BME280;27787;44.594;11.046;2023-08-17T06:50:55;101063.44;;;25.90;75.51
42125;BME280;27787;44.594;11.046;2023-08-17T06:53:40;101069.59;;;25.94;75.28
42125;BME280;27787;44.594;11.046;2023-08-17T06:56:24;101075.72;;;25.97;74.32
42125;BME280;27787;44.594;11.046;2023-08-17T06:59:09;101075.47;;;26.02;74.35
42125;BME280;27787;44.594;11.046;2023-08-17T07:01:53;101087.03;;;26.05;73.95
42125;BME280;27787;44.594;11.046;2023-08-17T07:04:37;101077.00;;;26.07;74.11
42125;BME280;27787;44.594;11.046;2023-08-17T07:07:21;101079.63;;;26.09;74.27
42125;BME280;27787;44.594;11.046;2023-08-17T07:10:05;101089.41;;;26.11;72.96
42125;BME280;27787;44.594;11.046;2023-08-17T07:12:51;101083.03;;;26.12;72.46
42125;BME280;27787;44.594;11.046;2023-08-17T07:15:35;101078.34;;;26.16;72.96
42125;BME280;27787;44.594;11.046;2023-08-17T07:18:19;101074.53;;;26.20;73.19
42125;BME280;27787;44.594;11.046;2023-08-17T07:21:02;101083.19;;;26.27;72.79
42125;BME280;27787;44.594;11.046;2023-08-17T07:23:46;101085.72;;;26.30;72.44
42125;BME280;27787;44.594;11.046;2023-08-17T07:26:31;101086.47;;;26.33;72.67
42125;BME280;27787;44.594;11.046;2023-08-17T07:29:15;101085.19;;;26.40;72.65
42125;BME280;27787;44.594;11.046;2023-08-17T07:32:00;101091.34;;;26.44;71.17
42125;BME280;27787;44.594;11.046;2023-08-17T07:34:46;101100.09;;;26.49;70.83
42125;BME280;27787;44.594;11.046;2023-08-17T07:37:30;101094.50;;;26.52;70.01
42125;BME280;27787;44.594;11.046;2023-08-17T07:40:17;101093.34;;;26.56;69.93
42125;BME280;27787;44.594;11.046;2023-08-17T07:43:01;101096.06;;;26.56;69.56
42125;BME280;27787;44.594;11.046;2023-08-17T07:45:46;101089.72;;;26.57;69.95
42125;BME280;27787;44.594;11.046;2023-08-17T07:48:30;101100.22;;;26.63;70.18
42125;BME280;27787;44.594;11.046;2023-08-17T07:51:17;101091.22;;;26.63;70.18
42125;BME280;27787;44.594;11.046;2023-08-17T07:54:01;101091.91;;;26.66;70.10
42125;BME280;27787;44.594;11.046;2023-08-17T07:56:45;101094.47;;;26.69;69.34
42125;BME280;27787;44.594;11.046;2023-08-17T07:59:29;101097.09;;;26.71;69.64
42125;BME280;27787;44.594;11.046;2023-08-17T08:02:13;101086.25;;;26.71;70.20
42125;BME280;27787;44.594;11.046;2023-08-17T08:04:58;101085.91;;;26.77;70.50
42125;BME280;27787;44.594;11.046;2023-08-17T08:07:42;101094.66;;;26.82;70.35
42125;BME280;27787;44.594;11.046;2023-08-17T08:10:27;101083.81;;;26.82;70.43
42125;BME280;27787;44.594;11.046;2023-08-17T08:13:12;101078.25;;;26.85;70.68
42125;BME280;27787;44.594;11.046;2023-08-17T08:15:57;101086.91;;;26.92;70.66
42125;BME280;27787;44.594;11.046;2023-08-17T08:18:42;101088.31;;;26.99;69.33
42125;BME280;27787;44.594;11.046;2023-08-17T08:21:26;101088.19;;;27.02;69.16
42125;BME280;27787;44.594;11.046;2023-08-17T08:24:11;101088.78;;;27.07;69.24
42125;BME280;27787;44.594;11.046;2023-08-17T08:26:55;101090.38;;;27.11;68.39
42125;BME280;27787;44.594;11.046;2023-08-17T08:29:39;101088.44;;;27.13;68.13
42125;BME280;27787;44.594;11.046;2023-08-17T08:32:23;101086.53;;;27.15;68.53
42125;BME280;27787;44.594;11.046;2023-08-17T08:35:07;101087.31;;;27.17;68.45
42125;BME280;27787;44.594;11.046;2023-08-17T08:37:52;101096.06;;;27.22;68.96
42125;BME280;27787;44.594;11.046;2023-08-17T08:40:37;101085.91;;;27.26;68.72
42125;BME280;27787;44.594;11.046;2023-08-17T08:43:22;101085.47;;;27.33;68.87
42125;BME280;27787;44.594;11.046;2023-08-17T08:46:06;101082.41;;;27.40;69.14
42125;BME280;27787;44.594;11.046;2023-08-17T08:48:52;101090.19;;;27.46;68.40
42125;BME280;27787;44.594;11.046;2023-08-17T08:51:41;101084.41;;;27.52;67.71
42125;BME280;27787;44.594;11.046;2023-08-17T08:54:29;101082.31;;;27.57;68.09
42125;BME280;27787;44.594;11.046;2023-08-17T08:57:13;101079.41;;;27.60;68.36
42125;BME280;27787;44.594;11.046;2023-08-17T08:59:58;101075.75;;;27.61;66.37
42125;BME280;27787;44.594;11.046;2023-08-17T09:02:43;101077.34;;;27.65;66.99
42125;BME280;27787;44.594;11.046;2023-08-17T09:05:27;101077.06;;;27.70;67.16
42125;BME280;27787;44.594;11.046;2023-08-17T09:08:12;101076.88;;;27.73;66.52
42125;BME280;27787;44.594;11.046;2023-08-17T09:10:57;101080.13;;;27.79;65.44
42125;BME280;27787;44.594;11.046;2023-08-17T09:13:41;101077.22;;;27.82;66.36
42125;BME280;27787;44.594;11.046;2023-08-17T09:16:27;101076.06;;;27.86;66.13
42125;BME280;27787;44.594;11.046;2023-08-17T09:19:12;101071.59;;;27.85;65.74
42125;BME280;27787;44.594;11.046;2023-08-17T09:21:56;101070.38;;;27.91;65.48
42125;BME280;27787;44.594;11.046;2023-08-17T09:24:40;101063.69;;;27.97;65.70
42125;BME280;27787;44.594;11.046;2023-08-17T09:27:24;101057.19;;;27.99;66.15
42125;BME280;27787;44.594;11.046;2023-08-17T09:30:10;101056.75;;;28.07;65.63
42125;BME280;27787;44.594;11.046;2023-08-17T09:32:54;101050.16;;;28.11;65.46
42125;BME280;27787;44.594;11.046;2023-08-17T09:35:41;101049.28;;;28.10;64.60
42125;BME280;27787;44.594;11.046;2023-08-17T09:38:26;101048.41;;;28.10;64.92
42125;BME280;27787;44.594;11.046;2023-08-17T09:41:12;101048.81;;;28.18;64.61
42125;BME280;27787;44.594;11.046;2023-08-17T09:43:57;101041.69;;;28.31;64.11
42125;BME280;27787;44.594;11.046;2023-08-17T09:46:44;101047.31;;;28.28;64.64
42125;BME280;27787;44.594;11.046;2023-08-17T09:49:31;101044.41;;;28.31;63.84
42125;BME280;27787;44.594;11.046;2023-08-17T09:52:16;101046.94;;;28.34;64.00
42125;BME280;27787;44.594;11.046;2023-08-17T09:55:01;101037.03;;;28.47;64.64
42125;BME280;27787;44.594;11.046;2023-08-17T09:57:51;101041.41;;;28.64;63.72
42125;BME280;27787;44.594;11.046;2023-08-17T10:00:35;101036.56;;;28.69;62.87
42125;BME280;27787;44.594;11.046;2023-08-17T10:03:20;101036.88;;;28.65;64.43
42125;BME280;27787;44.594;11.046;2023-08-17T10:06:05;101042.31;;;28.65;64.11
42125;BME280;27787;44.594;11.046;2023-08-17T10:08:54;101040.72;;;28.75;62.60
42125;BME280;27787;44.594;11.046;2023-08-17T10:11:41;101033.66;;;28.72;62.51
42125;BME280;27787;44.594;11.046;2023-08-17T10:14:34;101030.25;;;28.69;63.61
42125;BME280;27787;44.594;11.046;2023-08-17T10:17:26;101026.25;;;28.74;62.70
42125;BME280;27787;44.594;11.046;2023-08-17T10:20:12;101024.63;;;28.72;62.61
42125;BME280;27787;44.594;11.046;2023-08-17T10:25:51;101025.88;;;28.81;64.07
42125;BME280;27787;44.594;11.046;2023-08-17T10:28:36;101017.91;;;28.77;64.86
42125;BME280;27787;44.594;11.046;2023-08-17T10:31:22;101015.28;;;28.76;64.31
42125;BME280;27787;44.594;11.046;2023-08-17T10:34:07;101005.22;;;28.78;63.36
42125;BME280;27787;44.594;11.046;2023-08-17T10:36:51;101014.03;;;28.82;63.39
42125;BME280;27787;44.594;11.046;2023-08-17T10:39:36;101009.38;;;28.84;62.62
42125;BME280;27787;44.594;11.046;2023-08-17T10:42:34;101008.22;;;28.88;61.87
42125;BME280;27787;44.594;11.046;2023-08-17T10:45:27;101001.22;;;28.84;62.72
42125;BME280;27787;44.594;11.046;2023-08-17T10:51:04;101004.53;;;28.74;63.68
42125;BME280;27787;44.594;11.046;2023-08-17T10:53:52;101002.88;;;28.72;62.86
42125;BME280;27787;44.594;11.046;2023-08-17T10:56:40;101006.16;;;28.77;62.55
42125;BME280;27787;44.594;11.046;2023-08-17T10:59:24;101002.28;;;28.81;61.89
42125;BME280;27787;44.594;11.046;2023-08-17T11:02:09;100993.75;;;28.87;61.89
42125;BME280;27787;44.594;11.046;2023-08-17T11:04:53;100987.94;;;28.93;61.79
42125;BME280;27787;44.594;11.046;2023-08-17T11:07:41;100990.13;;;29.01;60.66
42125;BME280;27787;44.594;11.046;2023-08-17T11:10:27;100990.72;;;29.06;59.62
42125;BME280;27787;44.594;11.046;2023-08-17T11:13:13;100987.13;;;29.05;57.38
42125;BME280;27787;44.594;11.046;2023-08-17T11:15:58;100984.00;;;29.12;57.50
42125;BME280;27787;44.594;11.046;2023-08-17T11:18:43;100976.31;;;29.18;58.09
42125;BME280;27787;44.594;11.046;2023-08-17T11:21:28;100968.81;;;29.22;57.07
42125;BME280;27787;44.594;11.046;2023-08-17T11:24:12;100966.66;;;29.27;57.14
42125;BME280;27787;44.594;11.046;2023-08-17T11:26:56;100959.94;;;29.32;57.36
42125;BME280;27787;44.594;11.046;2023-08-17T11:29:40;100966.91;;;29.36;57.14
42125;BME280;27787;44.594;11.046;2023-08-17T11:32:24;100959.41;;;29.40;55.82
42125;BME280;27787;44.594;11.046;2023-08-17T11:35:09;100952.88;;;29.43;54.87
42125;BME280;27787;44.594;11.046;2023-08-17T11:37:53;100950.69;;;29.62;55.38
42125;BME280;27787;44.594;11.046;2023-08-17T11:40:37;100943.91;;;29.67;55.70
42125;BME280;27787;44.594;11.046;2023-08-17T11:43:21;100950.81;;;29.73;56.13
42125;BME280;27787;44.594;11.046;2023-08-17T11:46:06;100946.13;;;29.75;55.80
42125;BME280;27787;44.594;11.046;2023-08-17T11:48:50;100946.53;;;29.82;54.94
42125;BME280;27787;44.594;11.046;2023-08-17T11:51:37;100948.31;;;29.83;55.25
42125;BME280;27787;44.594;11.046;2023-08-17T11:54:22;100944.16;;;29.77;55.90
42125;BME280;27787;44.594;11.046;2023-08-17T11:57:06;100950.91;;;29.72;55.90
42125;BME280;27787;44.594;11.046;2023-08-17T11:59:58;100946.66;;;29.67;56.27
42125;BME280;27787;44.594;11.046;2023-08-17T12:02:42;100946.09;;;29.62;55.87
42125;BME280;27787;44.594;11.046;2023-08-17T12:05:27;100944.47;;;29.60;55.94
42125;BME280;27787;44.594;11.046;2023-08-17T12:08:13;100944.38;;;29.61;55.75
42125;BME280;27787;44.594;11.046;2023-08-17T12:11:00;100947.75;;;29.65;56.62
42125;BME280;27787;44.594;11.046;2023-08-17T12:13:49;100935.69;;;29.69;56.12
42125;BME280;27787;44.594;11.046;2023-08-17T12:16:34;100931.53;;;29.76;55.91
42125;BME280;27787;44.594;11.046;2023-08-17T12:19:19;100929.47;;;29.80;55.74
42125;BME280;27787;44.594;11.046;2023-08-17T12:22:04;100924.59;;;29.85;56.16
42125;BME280;27787;44.594;11.046;2023-08-17T12:24:48;100926.22;;;29.87;56.59
42125;BME280;27787;44.594;11.046;2023-08-17T12:27:32;100930.44;;;29.91;57.75
42125;BME280;27787;44.594;11.046;2023-08-17T12:30:30;100927.84;;;29.90;57.51
42125;BME280;27787;44.594;11.046;2023-08-17T12:33:16;100932.41;;;29.89;57.17
42125;BME280;27787;44.594;11.046;2023-08-17T12:35:59;100923.50;;;29.87;56.71
42125;BME280;27787;44.594;11.046;2023-08-17T12:38:43;100923.50;;;29.87;56.06
42125;BME280;27787;44.594;11.046;2023-08-17T12:41:28;100924.34;;;29.88;55.89
42125;BME280;27787;44.594;11.046;2023-08-17T12:44:12;100914.22;;;29.90;55.90
42125;BME280;27787;44.594;11.046;2023-08-17T12:46:57;100909.53;;;29.92;56.30
42125;BME280;27787;44.594;11.046;2023-08-17T12:49:41;100904.84;;;29.94;57.25
42125;BME280;27787;44.594;11.046;2023-08-17T12:52:25;100903.22;;;29.91;56.77
42125;BME280;27787;44.594;11.046;2023-08-17T12:55:09;100907.03;;;29.89;56.13
42125;BME280;27787;44.594;11.046;2023-08-17T12:57:54;100906.16;;;29.88;56.17
42125;BME280;27787;44.594;11.046;2023-08-17T13:00:38;100904.31;;;29.89;56.33
42125;BME280;27787;44.594;11.046;2023-08-17T13:03:22;100899.53;;;29.92;56.56
42125;BME280;27787;44.594;11.046;2023-08-17T13:06:07;100890.28;;;29.95;57.93
42125;BME280;27787;44.594;11.046;2023-08-17T13:08:51;100881.03;;;29.98;59.34
42125;BME280;27787;44.594;11.046;2023-08-17T13:11:35;100878.19;;;29.99;59.45
42125;BME280;27787;44.594;11.046;2023-08-17T13:14:19;100875.47;;;29.99;59.66
42125;BME280;27787;44.594;11.046;2023-08-17T13:17:04;100877.97;;;30.02;60.69
42125;BME280;27787;44.594;11.046;2023-08-17T13:19:48;100866.94;;;30.04;61.15
42125;BME280;27787;44.594;11.046;2023-08-17T13:22:32;100867.81;;;30.04;60.98
42125;BME280;27787;44.594;11.046;2023-08-17T13:25:16;100864.91;;;30.07;61.47
42125;BME280;27787;44.594;11.046;2023-08-17T13:28:00;100863.03;;;30.08;60.77
42125;BME280;27787;44.594;11.046;2023-08-17T13:30:45;100864.69;;;30.10;61.05
42125;BME280;27787;44.594;11.046;2023-08-17T13:33:30;100861.97;;;30.10;61.19
42125;BME280;27787;44.594;11.046;2023-08-17T13:36:14;100850.22;;;30.10;60.98
42125;BME280;27787;44.594;11.046;2023-08-17T13:38:58;100853.06;;;30.08;60.41
42125;BME280;27787;44.594;11.046;2023-08-17T13:41:42;100858.59;;;30.07;58.71
42125;BME280;27787;44.594;11.046;2023-08-17T13:47:55;100878.72;;;30.04;58.56
42125;BME280;27787;44.594;11.046;2023-08-17T13:50:39;100878.94;;;30.01;58.61
42125;BME280;27787;44.594;11.046;2023-08-17T13:53:23;100888.97;;;30.01;59.51
42125;BME280;27787;44.594;11.046;2023-08-17T13:56:09;100896.38;;;29.99;60.01
42125;BME280;27787;44.594;11.046;2023-08-17T13:58:54;100896.78;;;29.92;58.36
42125;BME280;27787;44.594;11.046;2023-08-17T14:01:38;100902.59;;;29.88;56.81
42125;BME280;27787;44.594;11.046;2023-08-17T14:04:22;100914.34;;;29.88;56.25
42125;BME280;27787;44.594;11.046;2023-08-17T14:07:06;100917.06;;;29.88;56.27
42125;BME280;27787;44.594;11.046;2023-08-17T14:09:50;100918.91;;;29.88;57.00
42125;BME280;27787;44.594;11.046;2023-08-17T14:12:34;100915.22;;;29.89;57.81
42125;BME280;27787;44.594;11.046;2023-08-17T14:15:20;100910.00;;;29.86;58.10
42125;BME280;27787;44.594;11.046;2023-08-17T14:18:06;100916.53;;;29.83;57.54
42125;BME280;27787;44.594;11.046;2023-08-17T14:20:50;100910.22;;;29.83;57.20
42125;BME280;27787;44.594;11.046;2023-08-17T14:23:34;100909.44;;;29.81;56.52
42125;BME280;27787;44.594;11.046;2023-08-17T14:26:18;100911.28;;;29.80;57.44